sensor_id;sensor_type;location;lat;lon;timestamp;temperature;humidity
49132;DHT22;35149;51.196;6.204;2023-07-13T00:02:02;21.20;46.80
49132;DHT22;35149;51.196;6.204;2023-07-13T00:04:29;21.20;47.10
49132;DHT22;35149;51.196;6.204;2023-07-13T00:06:59;21.20;47.50
49132;DHT22;35149;51.196;6.204;2023-07-13T00:09:26;21.10;46.90
49132;DHT22;35149;51.196;6.204;2023-07-13T00:11:57;21.10;46.90
49132;DHT22;35149;51.196;6.204;2023-07-13T00:14:26;21.10;46.90
49132;DHT22;35149;51.196;6.204;2023-07-13T00:16:53;21.10;47.30
49132;DHT22;35149;51.196;6.204;2023-07-13T00:19:20;21.00;47.40
49132;DHT22;35149;51.196;6.204;2023-07-13T00:21:47;21.00;47.50
49132;DHT22;35149;51.196;6.204;2023-07-13T00:24:17;21.00;47.60
49132;DHT22;35149;51.196;6.204;2023-07-13T00:26:49;21.00;48.00
49132;DHT22;35149;51.196;6.204;2023-07-13T00:29:17;20.90;47.90
49132;DHT22;35149;51.196;6.204;2023-07-13T00:31:44;20.90;47.90
49132;DHT22;35149;51.196;6.204;2023-07-13T00:34:11;20.90;48.10
49132;DHT22;35149;51.196;6.204;2023-07-13T00:36:40;20.90;48.20
49132;DHT22;35149;51.196;6.204;2023-07-13T00:39:07;20.80;48.20
49132;DHT22;35149;51.196;6.204;2023-07-13T00:41:34;20.80;48.40
49132;DHT22;35149;51.196;6.204;2023-07-13T00:44:03;20.80;48.40
49132;DHT22;35149;51.196;6.204;2023-07-13T00:46:33;20.80;48.60
49132;DHT22;35149;51.196;6.204;2023-07-13T00:49:08;20.80;48.60
49132;DHT22;35149;51.196;6.204;2023-07-13T00:51:49;20.70;48.80
49132;DHT22;35149;51.196;6.204;2023-07-13T00:54:26;20.70;49.20
49132;DHT22;35149;51.196;6.204;2023-07-13T00:56:59;20.70;49.40
49132;DHT22;35149;51.196;6.204;2023-07-13T00:59:33;20.70;49.20
49132;DHT22;35149;51.196;6.204;2023-07-13T01:02:02;20.60;49.20
49132;DHT22;35149;51.196;6.204;2023-07-13T01:04:31;20.60;49.10
49132;DHT22;35149;51.196;6.204;2023-07-13T01:07:00;20.50;49.40
49132;DHT22;35149;51.196;6.204;2023-07-13T01:09:29;20.50;49.10
49132;DHT22;35149;51.196;6.204;2023-07-13T01:11:56;20.50;49.20
49132;DHT22;35149;51.196;6.204;2023-07-13T01:14:23;20.40;49.20
49132;DHT22;35149;51.196;6.204;2023-07-13T01:16:55;20.40;49.40
49132;DHT22;35149;51.196;6.204;2023-07-13T01:22:09;20.40;50.00
49132;DHT22;35149;51.196;6.204;2023-07-13T01:24:42;20.40;50.10
49132;DHT22;35149;51.196;6.204;2023-07-13T01:27:11;20.30;50.00
49132;DHT22;35149;51.196;6.204;2023-07-13T01:29:40;20.30;49.90
49132;DHT22;35149;51.196;6.204;2023-07-13T01:32:15;20.30;50.00
49132;DHT22;35149;51.196;6.204;2023-07-13T01:34:44;20.30;50.40
49132;DHT22;35149;51.196;6.204;2023-07-13T01:37:16;20.20;50.10
49132;DHT22;35149;51.196;6.204;2023-07-13T01:39:47;20.30;49.60
49132;DHT22;35149;51.196;6.204;2023-07-13T01:42:17;20.20;49.90
49132;DHT22;35149;51.196;6.204;2023-07-13T01:44:47;20.20;50.10
49132;DHT22;35149;51.196;6.204;2023-07-13T01:47:18;20.20;50.20
49132;DHT22;35149;51.196;6.204;2023-07-13T01:49:45;20.10;50.70
49132;DHT22;35149;51.196;6.204;2023-07-13T01:52:16;20.10;50.60
49132;DHT22;35149;51.196;6.204;2023-07-13T01:54:44;20.10;50.90
49132;DHT22;35149;51.196;6.204;2023-07-13T01:57:16;20.10;51.00
49132;DHT22;35149;51.196;6.204;2023-07-13T01:59:43;20.00;51.00
49132;DHT22;35149;51.196;6.204;2023-07-13T02:02:09;20.00;51.30
49132;DHT22;35149;51.196;6.204;2023-07-13T02:04:40;20.00;51.40
49132;DHT22;35149;51.196;6.204;2023-07-13T02:07:08;19.90;51.40
49132;DHT22;35149;51.196;6.204;2023-07-13T02:09:36;19.90;51.50
49132;DHT22;35149;51.196;6.204;2023-07-13T02:12:08;19.90;51.60
49132;DHT22;35149;51.196;6.204;2023-07-13T02:14:37;19.90;51.70
49132;DHT22;35149;51.196;6.204;2023-07-13T02:17:05;19.90;51.70
49132;DHT22;35149;51.196;6.204;2023-07-13T02:19:35;19.90;51.80
49132;DHT22;35149;51.196;6.204;2023-07-13T02:22:05;19.80;51.70
49132;DHT22;35149;51.196;6.204;2023-07-13T02:24:32;19.80;51.90
49132;DHT22;35149;51.196;6.204;2023-07-13T02:27:03;19.80;52.00
49132;DHT22;35149;51.196;6.204;2023-07-13T02:29:32;19.80;52.50
49132;DHT22;35149;51.196;6.204;2023-07-13T02:31:59;19.70;52.10
49132;DHT22;35149;51.196;6.204;2023-07-13T02:34:28;19.70;52.30
49132;DHT22;35149;51.196;6.204;2023-07-13T02:36:58;19.70;52.40
49132;DHT22;35149;51.196;6.204;2023-07-13T02:39:27;19.70;52.50
49132;DHT22;35149;51.196;6.204;2023-07-13T02:41:56;19.60;52.50
49132;DHT22;35149;51.196;6.204;2023-07-13T02:44:23;19.50;52.60
49132;DHT22;35149;51.196;6.204;2023-07-13T02:46:52;19.60;52.70
49132;DHT22;35149;51.196;6.204;2023-07-13T02:49:19;19.60;52.90
49132;DHT22;35149;51.196;6.204;2023-07-13T02:51:49;19.60;53.00
49132;DHT22;35149;51.196;6.204;2023-07-13T02:54:18;19.60;53.40
49132;DHT22;35149;51.196;6.204;2023-07-13T02:56:52;19.50;53.10
49132;DHT22;35149;51.196;6.204;2023-07-13T02:59:19;19.50;53.20
49132;DHT22;35149;51.196;6.204;2023-07-13T03:01:45;19.40;53.30
49132;DHT22;35149;51.196;6.204;2023-07-13T03:04:12;19.50;53.50
49132;DHT22;35149;51.196;6.204;2023-07-13T03:06:41;19.40;53.60
49132;DHT22;35149;51.196;6.204;2023-07-13T03:09:08;19.40;53.70
49132;DHT22;35149;51.196;6.204;2023-07-13T03:11:45;19.40;53.80
49132;DHT22;35149;51.196;6.204;2023-07-13T03:14:30;19.30;53.80
49132;DHT22;35149;51.196;6.204;2023-07-13T03:16:58;19.30;53.90
49132;DHT22;35149;51.196;6.204;2023-07-13T03:19:28;19.30;54.10
49132;DHT22;35149;51.196;6.204;2023-07-13T03:21:56;19.30;54.10
49132;DHT22;35149;51.196;6.204;2023-07-13T03:24:25;19.20;54.30
49132;DHT22;35149;51.196;6.204;2023-07-13T03:26:52;19.20;54.40
49132;DHT22;35149;51.196;6.204;2023-07-13T03:29:20;19.20;54.60
49132;DHT22;35149;51.196;6.204;2023-07-13T03:31:46;19.20;54.60
49132;DHT22;35149;51.196;6.204;2023-07-13T03:34:15;19.20;54.70
49132;DHT22;35149;51.196;6.204;2023-07-13T03:36:42;19.10;54.80
49132;DHT22;35149;51.196;6.204;2023-07-13T03:39:12;19.10;55.00
49132;DHT22;35149;51.196;6.204;2023-07-13T03:41:52;19.10;55.00
49132;DHT22;35149;51.196;6.204;2023-07-13T03:44:21;19.00;55.10
49132;DHT22;35149;51.196;6.204;2023-07-13T03:46:52;19.00;55.30
49132;DHT22;35149;51.196;6.204;2023-07-13T03:49:19;19.00;55.20
49132;DHT22;35149;51.196;6.204;2023-07-13T03:51:46;19.00;55.50
49132;DHT22;35149;51.196;6.204;2023-07-13T03:54:13;19.00;55.50
49132;DHT22;35149;51.196;6.204;2023-07-13T03:56:42;19.00;55.60
49132;DHT22;35149;51.196;6.204;2023-07-13T03:59:14;19.00;55.80
49132;DHT22;35149;51.196;6.204;2023-07-13T04:01:42;19.00;55.80
49132;DHT22;35149;51.196;6.204;2023-07-13T04:04:14;19.00;56.00
49132;DHT22;35149;51.196;6.204;2023-07-13T04:06:44;19.00;56.00
49132;DHT22;35149;51.196;6.204;2023-07-13T04:09:18;19.00;56.00
49132;DHT22;35149;51.196;6.204;2023-07-13T04:11:45;19.00;56.00
49132;DHT22;35149;51.196;6.204;2023-07-13T04:14:11;19.00;56.20
49132;DHT22;35149;51.196;6.204;2023-07-13T04:16:43;19.00;56.30
49132;DHT22;35149;51.196;6.204;2023-07-13T04:19:10;19.00;56.30
49132;DHT22;35149;51.196;6.204;2023-07-13T04:21:37;19.00;56.40
49132;DHT22;35149;51.196;6.204;2023-07-13T04:24:04;19.00;56.40
49132;DHT22;35149;51.196;6.204;2023-07-13T04:26:30;19.00;56.50
49132;DHT22;35149;51.196;6.204;2023-07-13T04:29:00;19.00;56.60
49132;DHT22;35149;51.196;6.204;2023-07-13T04:31:27;19.10;56.70
49132;DHT22;35149;51.196;6.204;2023-07-13T04:33:56;19.10;56.80
49132;DHT22;35149;51.196;6.204;2023-07-13T04:36:26;19.10;56.80
49132;DHT22;35149;51.196;6.204;2023-07-13T04:38:59;19.10;57.10
49132;DHT22;35149;51.196;6.204;2023-07-13T04:41:28;19.10;57.10
49132;DHT22;35149;51.196;6.204;2023-07-13T04:43:57;19.10;56.90
49132;DHT22;35149;51.196;6.204;2023-07-13T04:46:23;19.10;57.00
49132;DHT22;35149;51.196;6.204;2023-07-13T04:48:50;19.10;57.00
49132;DHT22;35149;51.196;6.204;2023-07-13T04:51:19;19.10;57.10
49132;DHT22;35149;51.196;6.204;2023-07-13T04:53:46;19.10;57.30
49132;DHT22;35149;51.196;6.204;2023-07-13T04:56:13;19.20;58.00
49132;DHT22;35149;51.196;6.204;2023-07-13T04:58:39;19.10;57.50
49132;DHT22;35149;51.196;6.204;2023-07-13T05:01:07;19.10;57.60
49132;DHT22;35149;51.196;6.204;2023-07-13T05:03:35;19.10;57.70
49132;DHT22;35149;51.196;6.204;2023-07-13T05:06:07;19.20;57.70
49132;DHT22;35149;51.196;6.204;2023-07-13T05:08:36;19.10;58.10
49132;DHT22;35149;51.196;6.204;2023-07-13T05:11:04;19.20;57.70
49132;DHT22;35149;51.196;6.204;2023-07-13T05:13:31;19.20;57.90
49132;DHT22;35149;51.196;6.204;2023-07-13T05:16:00;19.20;57.90
49132;DHT22;35149;51.196;6.204;2023-07-13T05:18:28;19.20;58.00
49132;DHT22;35149;51.196;6.204;2023-07-13T05:21:01;19.30;58.00
49132;DHT22;35149;51.196;6.204;2023-07-13T05:23:28;19.30;58.20
49132;DHT22;35149;51.196;6.204;2023-07-13T05:25:55;19.30;57.90
49132;DHT22;35149;51.196;6.204;2023-07-13T05:28:25;19.40;58.10
49132;DHT22;35149;51.196;6.204;2023-07-13T05:30:52;19.40;58.30
49132;DHT22;35149;51.196;6.204;2023-07-13T05:33:18;19.40;58.40
49132;DHT22;35149;51.196;6.204;2023-07-13T05:35:45;19.40;58.50
49132;DHT22;35149;51.196;6.204;2023-07-13T05:38:14;19.50;58.60
49132;DHT22;35149;51.196;6.204;2023-07-13T05:40:44;19.50;58.60
49132;DHT22;35149;51.196;6.204;2023-07-13T05:43:12;19.60;58.60
49132;DHT22;35149;51.196;6.204;2023-07-13T05:45:39;19.70;58.80
49132;DHT22;35149;51.196;6.204;2023-07-13T05:48:06;19.70;58.70
49132;DHT22;35149;51.196;6.204;2023-07-13T05:50:33;19.80;58.80
49132;DHT22;35149;51.196;6.204;2023-07-13T05:53:00;19.90;58.60
49132;DHT22;35149;51.196;6.204;2023-07-13T05:55:27;19.90;58.60
49132;DHT22;35149;51.196;6.204;2023-07-13T05:57:53;20.00;58.50
49132;DHT22;35149;51.196;6.204;2023-07-13T06:00:20;20.20;58.60
49132;DHT22;35149;51.196;6.204;2023-07-13T06:02:47;20.30;58.30
49132;DHT22;35149;51.196;6.204;2023-07-13T06:05:14;20.30;58.00
49132;DHT22;35149;51.196;6.204;2023-07-13T06:07:41;20.40;57.80
49132;DHT22;35149;51.196;6.204;2023-07-13T06:10:08;20.40;57.70
49132;DHT22;35149;51.196;6.204;2023-07-13T06:12:35;20.50;57.60
49132;DHT22;35149;51.196;6.204;2023-07-13T06:15:02;20.50;57.60
49132;DHT22;35149;51.196;6.204;2023-07-13T06:17:30;20.50;57.50
49132;DHT22;35149;51.196;6.204;2023-07-13T06:19:57;20.50;57.20
49132;DHT22;35149;51.196;6.204;2023-07-13T06:22:24;20.50;57.30
49132;DHT22;35149;51.196;6.204;2023-07-13T06:24:51;20.50;57.50
49132;DHT22;35149;51.196;6.204;2023-07-13T06:27:18;20.50;57.50
49132;DHT22;35149;51.196;6.204;2023-07-13T06:29:45;20.60;57.60
49132;DHT22;35149;51.196;6.204;2023-07-13T06:32:12;20.60;57.60
49132;DHT22;35149;51.196;6.204;2023-07-13T06:34:38;20.60;57.60
49132;DHT22;35149;51.196;6.204;2023-07-13T06:37:09;20.70;57.70
49132;DHT22;35149;51.196;6.204;2023-07-13T06:39:36;20.70;57.60
49132;DHT22;35149;51.196;6.204;2023-07-13T06:42:03;20.80;57.40
49132;DHT22;35149;51.196;6.204;2023-07-13T06:44:30;20.90;57.40
49132;DHT22;35149;51.196;6.204;2023-07-13T06:46:56;21.00;57.20
49132;DHT22;35149;51.196;6.204;2023-07-13T06:49:23;21.00;57.10
49132;DHT22;35149;51.196;6.204;2023-07-13T06:51:50;21.10;57.10
49132;DHT22;35149;51.196;6.204;2023-07-13T06:54:16;21.10;56.90
49132;DHT22;35149;51.196;6.204;2023-07-13T06:56:43;21.20;56.70
49132;DHT22;35149;51.196;6.204;2023-07-13T06:59:10;21.20;57.30
49132;DHT22;35149;51.196;6.204;2023-07-13T07:01:36;21.30;56.80
49132;DHT22;35149;51.196;6.204;2023-07-13T07:04:07;21.30;56.70
49132;DHT22;35149;51.196;6.204;2023-07-13T07:06:33;21.40;56.70
49132;DHT22;35149;51.196;6.204;2023-07-13T07:09:00;21.40;56.70
49132;DHT22;35149;51.196;6.204;2023-07-13T07:11:29;21.50;56.50
49132;DHT22;35149;51.196;6.204;2023-07-13T07:13:56;21.50;56.50
49132;DHT22;35149;51.196;6.204;2023-07-13T07:16:24;21.70;56.30
49132;DHT22;35149;51.196;6.204;2023-07-13T07:18:51;21.70;56.50
49132;DHT22;35149;51.196;6.204;2023-07-13T07:21:18;21.80;56.00
49132;DHT22;35149;51.196;6.204;2023-07-13T07:23:45;21.90;56.10
49132;DHT22;35149;51.196;6.204;2023-07-13T07:26:12;21.90;56.20
49132;DHT22;35149;51.196;6.204;2023-07-13T07:28:39;22.00;55.80
49132;DHT22;35149;51.196;6.204;2023-07-13T07:31:11;22.10;55.50
49132;DHT22;35149;51.196;6.204;2023-07-13T07:33:41;22.20;55.40
49132;DHT22;35149;51.196;6.204;2023-07-13T07:36:08;22.20;55.20
49132;DHT22;35149;51.196;6.204;2023-07-13T07:38:37;22.20;55.20
49132;DHT22;35149;51.196;6.204;2023-07-13T07:41:04;22.20;55.30
49132;DHT22;35149;51.196;6.204;2023-07-13T07:43:34;22.20;55.90
49132;DHT22;35149;51.196;6.204;2023-07-13T07:46:03;22.20;55.10
49132;DHT22;35149;51.196;6.204;2023-07-13T07:48:30;22.20;55.20
49132;DHT22;35149;51.196;6.204;2023-07-13T07:50:57;22.20;55.10
49132;DHT22;35149;51.196;6.204;2023-07-13T07:53:23;22.20;55.10
49132;DHT22;35149;51.196;6.204;2023-07-13T07:55:52;22.10;55.30
49132;DHT22;35149;51.196;6.204;2023-07-13T07:58:23;22.20;55.50
49132;DHT22;35149;51.196;6.204;2023-07-13T08:00:52;22.20;55.50
49132;DHT22;35149;51.196;6.204;2023-07-13T08:03:22;22.30;55.50
49132;DHT22;35149;51.196;6.204;2023-07-13T08:05:54;22.30;55.50
49132;DHT22;35149;51.196;6.204;2023-07-13T08:08:24;22.30;55.80
49132;DHT22;35149;51.196;6.204;2023-07-13T08:10:51;22.40;55.40
49132;DHT22;35149;51.196;6.204;2023-07-13T08:13:21;22.40;55.30
49132;DHT22;35149;51.196;6.204;2023-07-13T08:15:48;22.50;55.20
49132;DHT22;35149;51.196;6.204;2023-07-13T08:18:16;22.50;55.30
49132;DHT22;35149;51.196;6.204;2023-07-13T08:20:43;22.50;55.50
49132;DHT22;35149;51.196;6.204;2023-07-13T08:23:10;22.60;55.20
49132;DHT22;35149;51.196;6.204;2023-07-13T08:25:36;22.60;55.30
49132;DHT22;35149;51.196;6.204;2023-07-13T08:28:04;22.70;55.00
49132;DHT22;35149;51.196;6.204;2023-07-13T08:30:30;22.70;55.40
49132;DHT22;35149;51.196;6.204;2023-07-13T08:32:57;22.80;55.00
49132;DHT22;35149;51.196;6.204;2023-07-13T08:35:24;22.90;54.90
49132;DHT22;35149;51.196;6.204;2023-07-13T08:37:52;22.90;54.80
49132;DHT22;35149;51.196;6.204;2023-07-13T08:40:23;23.00;54.70
49132;DHT22;35149;51.196;6.204;2023-07-13T08:42:58;23.00;54.30
49132;DHT22;35149;51.196;6.204;2023-07-13T08:45:47;23.10;54.40
49132;DHT22;35149;51.196;6.204;2023-07-13T08:48:43;23.20;54.10
49132;DHT22;35149;51.196;6.204;2023-07-13T08:51:46;23.30;53.80
49132;DHT22;35149;51.196;6.204;2023-07-13T08:56:51;23.40;53.80
49132;DHT22;35149;51.196;6.204;2023-07-13T08:59:23;23.40;53.70
49132;DHT22;35149;51.196;6.204;2023-07-13T09:04:54;23.60;53.60
49132;DHT22;35149;51.196;6.204;2023-07-13T09:13:06;23.70;53.20
49132;DHT22;35149;51.196;6.204;2023-07-13T09:15:46;23.80;52.90
49132;DHT22;35149;51.196;6.204;2023-07-13T09:18:29;23.90;52.60
49132;DHT22;35149;51.196;6.204;2023-07-13T09:23:38;24.00;52.40
49132;DHT22;35149;51.196;6.204;2023-07-13T09:26:20;24.00;52.00
49132;DHT22;35149;51.196;6.204;2023-07-13T09:29:00;24.10;51.80
49132;DHT22;35149;51.196;6.204;2023-07-13T09:31:38;24.10;51.40
49132;DHT22;35149;51.196;6.204;2023-07-13T09:34:13;24.20;51.50
49132;DHT22;35149;51.196;6.204;2023-07-13T09:36:39;24.20;52.30
49132;DHT22;35149;51.196;6.204;2023-07-13T09:39:29;24.20;51.70
49132;DHT22;35149;51.196;6.204;2023-07-13T09:42:20;24.30;51.00
49132;DHT22;35149;51.196;6.204;2023-07-13T09:44:55;24.30;50.60
49132;DHT22;35149;51.196;6.204;2023-07-13T09:47:30;24.30;50.50
49132;DHT22;35149;51.196;6.204;2023-07-13T09:50:12;24.30;50.50
49132;DHT22;35149;51.196;6.204;2023-07-13T09:52:45;24.30;50.20
49132;DHT22;35149;51.196;6.204;2023-07-13T09:57:56;24.20;50.70
49132;DHT22;35149;51.196;6.204;2023-07-13T10:00:26;24.20;50.80
49132;DHT22;35149;51.196;6.204;2023-07-13T10:03:01;24.20;50.70
49132;DHT22;35149;51.196;6.204;2023-07-13T10:05:41;24.30;50.30
49132;DHT22;35149;51.196;6.204;2023-07-13T10:10:45;24.40;49.90
49132;DHT22;35149;51.196;6.204;2023-07-13T10:13:26;24.50;50.10
49132;DHT22;35149;51.196;6.204;2023-07-13T10:15:54;24.50;50.10
49132;DHT22;35149;51.196;6.204;2023-07-13T10:18:23;24.60;49.70
49132;DHT22;35149;51.196;6.204;2023-07-13T10:20:58;24.60;50.20
49132;DHT22;35149;51.196;6.204;2023-07-13T10:23:53;24.70;50.70
49132;DHT22;35149;51.196;6.204;2023-07-13T10:26:31;24.80;49.90
49132;DHT22;35149;51.196;6.204;2023-07-13T10:29:03;24.90;50.00
49132;DHT22;35149;51.196;6.204;2023-07-13T10:31:30;25.00;49.30
49132;DHT22;35149;51.196;6.204;2023-07-13T10:33:57;25.10;49.60
49132;DHT22;35149;51.196;6.204;2023-07-13T10:36:54;25.20;49.10
49132;DHT22;35149;51.196;6.204;2023-07-13T10:39:26;25.30;48.40
49132;DHT22;35149;51.196;6.204;2023-07-13T10:41:57;25.30;48.40
49132;DHT22;35149;51.196;6.204;2023-07-13T10:44:30;25.30;47.80
49132;DHT22;35149;51.196;6.204;2023-07-13T10:47:02;25.30;47.60
49132;DHT22;35149;51.196;6.204;2023-07-13T10:49:32;25.30;47.50
49132;DHT22;35149;51.196;6.204;2023-07-13T10:51:59;25.30;47.40
49132;DHT22;35149;51.196;6.204;2023-07-13T10:54:31;25.30;47.70
49132;DHT22;35149;51.196;6.204;2023-07-13T10:59:47;25.40;47.90
49132;DHT22;35149;51.196;6.204;2023-07-13T11:02:26;25.30;47.80
49132;DHT22;35149;51.196;6.204;2023-07-13T11:04:55;25.40;47.30
49132;DHT22;35149;51.196;6.204;2023-07-13T11:07:29;25.30;46.60
49132;DHT22;35149;51.196;6.204;2023-07-13T11:09:58;25.30;47.50
49132;DHT22;35149;51.196;6.204;2023-07-13T11:12:29;25.30;47.30
49132;DHT22;35149;51.196;6.204;2023-07-13T11:15:49;25.40;47.00
49132;DHT22;35149;51.196;6.204;2023-07-13T11:18:23;25.40;47.10
49132;DHT22;35149;51.196;6.204;2023-07-13T11:20:52;25.50;46.70
49132;DHT22;35149;51.196;6.204;2023-07-13T11:23:27;25.50;46.90
49132;DHT22;35149;51.196;6.204;2023-07-13T11:25:55;25.50;45.80
49132;DHT22;35149;51.196;6.204;2023-07-13T11:28:24;25.60;47.20
49132;DHT22;35149;51.196;6.204;2023-07-13T11:41:15;26.20;45.50
49132;DHT22;35149;51.196;6.204;2023-07-13T11:43:44;26.30;44.90
49132;DHT22;35149;51.196;6.204;2023-07-13T11:46:22;26.40;45.10
49132;DHT22;35149;51.196;6.204;2023-07-13T11:48:50;26.40;44.80
49132;DHT22;35149;51.196;6.204;2023-07-13T11:51:31;26.60;44.90
49132;DHT22;35149;51.196;6.204;2023-07-13T11:54:02;26.70;44.70
49132;DHT22;35149;51.196;6.204;2023-07-13T11:56:30;26.90;45.50
49132;DHT22;35149;51.196;6.204;2023-07-13T11:59:05;26.90;44.40
49132;DHT22;35149;51.196;6.204;2023-07-13T12:01:33;27.10;43.70
49132;DHT22;35149;51.196;6.204;2023-07-13T12:04:03;27.10;43.50
49132;DHT22;35149;51.196;6.204;2023-07-13T12:06:32;27.20;43.50
49132;DHT22;35149;51.196;6.204;2023-07-13T12:09:03;27.20;42.90
49132;DHT22;35149;51.196;6.204;2023-07-13T12:11:34;27.20;42.70
49132;DHT22;35149;51.196;6.204;2023-07-13T12:14:01;27.20;42.60
49132;DHT22;35149;51.196;6.204;2023-07-13T12:16:32;27.10;42.30
49132;DHT22;35149;51.196;6.204;2023-07-13T12:19:01;27.10;41.80
49132;DHT22;35149;51.196;6.204;2023-07-13T12:21:37;27.00;42.40
49132;DHT22;35149;51.196;6.204;2023-07-13T12:24:04;27.00;42.20
49132;DHT22;35149;51.196;6.204;2023-07-13T12:26:32;27.00;42.70
49132;DHT22;35149;51.196;6.204;2023-07-13T12:29:00;27.00;42.00
49132;DHT22;35149;51.196;6.204;2023-07-13T12:31:35;27.10;42.30
49132;DHT22;35149;51.196;6.204;2023-07-13T12:34:06;27.00;42.00
49132;DHT22;35149;51.196;6.204;2023-07-13T12:36:35;27.00;41.80
49132;DHT22;35149;51.196;6.204;2023-07-13T12:44:41;26.70;42.00
49132;DHT22;35149;51.196;6.204;2023-07-13T12:47:12;26.60;43.10
49132;DHT22;35149;51.196;6.204;2023-07-13T12:49:50;26.50;42.00
49132;DHT22;35149;51.196;6.204;2023-07-13T12:52:33;26.30;42.90
49132;DHT22;35149;51.196;6.204;2023-07-13T12:55:11;26.30;42.50
49132;DHT22;35149;51.196;6.204;2023-07-13T12:57:50;26.20;42.70
49132;DHT22;35149;51.196;6.204;2023-07-13T13:00:31;26.20;42.90
49132;DHT22;35149;51.196;6.204;2023-07-13T13:03:05;26.30;43.10
49132;DHT22;35149;51.196;6.204;2023-07-13T13:08:51;26.70;43.50
49132;DHT22;35149;51.196;6.204;2023-07-13T13:11:19;26.80;42.70
49132;DHT22;35149;51.196;6.204;2023-07-13T13:13:46;27.00;43.00
49132;DHT22;35149;51.196;6.204;2023-07-13T13:18:49;27.40;42.40
49132;DHT22;35149;51.196;6.204;2023-07-13T13:21:17;27.50;42.30
49132;DHT22;35149;51.196;6.204;2023-07-13T13:23:45;27.60;42.40
49132;DHT22;35149;51.196;6.204;2023-07-13T13:26:14;27.70;42.10
49132;DHT22;35149;51.196;6.204;2023-07-13T13:28:43;27.90;42.50
49132;DHT22;35149;51.196;6.204;2023-07-13T13:31:11;28.10;41.90
49132;DHT22;35149;51.196;6.204;2023-07-13T13:33:41;28.30;41.60
49132;DHT22;35149;51.196;6.204;2023-07-13T13:36:22;28.40;40.30
49132;DHT22;35149;51.196;6.204;2023-07-13T13:38:50;28.60;39.50
49132;DHT22;35149;51.196;6.204;2023-07-13T13:41:19;28.60;39.70
49132;DHT22;35149;51.196;6.204;2023-07-13T13:43:50;28.50;40.20
49132;DHT22;35149;51.196;6.204;2023-07-13T13:46:21;28.50;39.60
49132;DHT22;35149;51.196;6.204;2023-07-13T13:48:51;28.40;39.80
49132;DHT22;35149;51.196;6.204;2023-07-13T13:51:23;28.20;40.20
49132;DHT22;35149;51.196;6.204;2023-07-13T13:54:01;28.10;40.30
49132;DHT22;35149;51.196;6.204;2023-07-13T13:56:32;27.90;40.60
49132;DHT22;35149;51.196;6.204;2023-07-13T13:58:59;27.70;40.90
49132;DHT22;35149;51.196;6.204;2023-07-13T14:01:32;27.50;42.00
49132;DHT22;35149;51.196;6.204;2023-07-13T14:03:58;27.40;42.80
49132;DHT22;35149;51.196;6.204;2023-07-13T14:06:28;27.10;44.10
49132;DHT22;35149;51.196;6.204;2023-07-13T14:08:57;26.90;43.70
49132;DHT22;35149;51.196;6.204;2023-07-13T14:11:26;26.80;43.70
49132;DHT22;35149;51.196;6.204;2023-07-13T14:14:01;26.60;43.60
49132;DHT22;35149;51.196;6.204;2023-07-13T14:16:34;26.50;44.10
49132;DHT22;35149;51.196;6.204;2023-07-13T14:19:04;26.30;44.10
49132;DHT22;35149;51.196;6.204;2023-07-13T14:21:31;26.20;44.10
49132;DHT22;35149;51.196;6.204;2023-07-13T14:23:58;26.10;44.10
49132;DHT22;35149;51.196;6.204;2023-07-13T14:26:26;26.00;43.90
49132;DHT22;35149;51.196;6.204;2023-07-13T14:28:58;25.90;43.90
49132;DHT22;35149;51.196;6.204;2023-07-13T14:31:28;25.90;44.40
49132;DHT22;35149;51.196;6.204;2023-07-13T14:33:59;25.90;45.40
49132;DHT22;35149;51.196;6.204;2023-07-13T14:36:34;25.90;44.30
49132;DHT22;35149;51.196;6.204;2023-07-13T14:39:31;25.90;44.60
49132;DHT22;35149;51.196;6.204;2023-07-13T14:42:00;25.90;44.10
49132;DHT22;35149;51.196;6.204;2023-07-13T14:44:30;25.90;44.50
49132;DHT22;35149;51.196;6.204;2023-07-13T14:47:04;25.80;44.70
49132;DHT22;35149;51.196;6.204;2023-07-13T14:49:37;25.70;44.70
49132;DHT22;35149;51.196;6.204;2023-07-13T14:52:16;25.60;45.30
49132;DHT22;35149;51.196;6.204;2023-07-13T14:54:44;25.40;45.80
49132;DHT22;35149;51.196;6.204;2023-07-13T14:57:19;25.30;45.90
49132;DHT22;35149;51.196;6.204;2023-07-13T14:59:49;25.10;46.70
49132;DHT22;35149;51.196;6.204;2023-07-13T15:02:34;25.00;46.60
49132;DHT22;35149;51.196;6.204;2023-07-13T15:05:18;24.90;46.80
49132;DHT22;35149;51.196;6.204;2023-07-13T15:07:46;24.90;46.70
49132;DHT22;35149;51.196;6.204;2023-07-13T15:10:18;24.70;46.30
49132;DHT22;35149;51.196;6.204;2023-07-13T15:12:45;24.70;47.10
49132;DHT22;35149;51.196;6.204;2023-07-13T15:15:13;24.60;46.20
49132;DHT22;35149;51.196;6.204;2023-07-13T15:17:41;24.50;46.20
49132;DHT22;35149;51.196;6.204;2023-07-13T15:20:15;24.50;46.50
49132;DHT22;35149;51.196;6.204;2023-07-13T15:22:43;24.50;46.80
49132;DHT22;35149;51.196;6.204;2023-07-13T15:25:18;24.40;46.50
49132;DHT22;35149;51.196;6.204;2023-07-13T15:27:45;24.40;46.30
49132;DHT22;35149;51.196;6.204;2023-07-13T15:30:14;24.40;46.10
49132;DHT22;35149;51.196;6.204;2023-07-13T15:32:43;24.40;46.30
49132;DHT22;35149;51.196;6.204;2023-07-13T15:35:19;24.40;46.50
49132;DHT22;35149;51.196;6.204;2023-07-13T15:37:47;24.50;46.50
49132;DHT22;35149;51.196;6.204;2023-07-13T15:40:14;24.50;46.40
49132;DHT22;35149;51.196;6.204;2023-07-13T15:42:42;24.70;46.40
49132;DHT22;35149;51.196;6.204;2023-07-13T15:45:20;24.70;46.70
49132;DHT22;35149;51.196;6.204;2023-07-13T15:47:49;24.80;45.80
49132;DHT22;35149;51.196;6.204;2023-07-13T15:50:21;24.80;45.50
49132;DHT22;35149;51.196;6.204;2023-07-13T15:52:52;24.90;45.40
49132;DHT22;35149;51.196;6.204;2023-07-13T15:55:20;24.90;46.00
49132;DHT22;35149;51.196;6.204;2023-07-13T15:57:52;25.00;45.10
49132;DHT22;35149;51.196;6.204;2023-07-13T16:00:23;25.10;44.80
49132;DHT22;35149;51.196;6.204;2023-07-13T16:02:50;25.20;44.80
49132;DHT22;35149;51.196;6.204;2023-07-13T16:05:19;25.30;45.00
49132;DHT22;35149;51.196;6.204;2023-07-13T16:07:47;25.30;44.90
49132;DHT22;35149;51.196;6.204;2023-07-13T16:10:16;25.50;44.80
49132;DHT22;35149;51.196;6.204;2023-07-13T16:12:43;25.60;44.90
49132;DHT22;35149;51.196;6.204;2023-07-13T16:15:14;25.80;44.60
49132;DHT22;35149;51.196;6.204;2023-07-13T16:17:42;26.00;44.40
49132;DHT22;35149;51.196;6.204;2023-07-13T16:20:12;26.20;44.30
49132;DHT22;35149;51.196;6.204;2023-07-13T16:22:48;26.40;44.10
49132;DHT22;35149;51.196;6.204;2023-07-13T16:25:22;26.60;43.40
49132;DHT22;35149;51.196;6.204;2023-07-13T16:27:53;26.90;43.30
49132;DHT22;35149;51.196;6.204;2023-07-13T16:30:30;27.20;42.70
49132;DHT22;35149;51.196;6.204;2023-07-13T16:33:01;27.50;42.70
49132;DHT22;35149;51.196;6.204;2023-07-13T16:35:35;27.90;42.70
49132;DHT22;35149;51.196;6.204;2023-07-13T16:38:36;28.50;42.40